createdAt,value
2022-11-17T00:01:46.245Z,70.62
2022-11-17T00:04:17.331Z,70.48
2022-11-17T00:06:48.699Z,70.40
2022-11-17T00:09:19.932Z,70.42
2022-11-17T00:12:09.404Z,70.74
2022-11-17T00:14:41.574Z,70.78
2022-11-17T00:17:14.561Z,70.65
2022-11-17T00:20:03.834Z,70.34
2022-11-17T00:22:35.080Z,69.95
2022-11-17T00:25:06.966Z,70.18
2022-11-17T00:27:39.006Z,70.31
2022-11-17T00:30:32.781Z,70.06
2022-11-17T00:33:23.303Z,70.06
2022-11-17T00:35:56.356Z,70.27
2022-11-17T00:38:27.420Z,69.99
2022-11-17T00:40:59.687Z,69.89
2022-11-17T00:43:30.759Z,70.08
2022-11-17T00:46:01.771Z,69.92
2022-11-17T00:48:32.920Z,69.99
2022-11-17T00:51:07.887Z,69.88
2022-11-17T00:53:39.203Z,70.00
2022-11-17T00:56:11.063Z,69.86
2022-11-17T00:58:42.316Z,69.60
2022-11-17T01:01:13.811Z,69.84
2022-11-17T01:03:45.220Z,70.13
2022-11-17T01:06:18.533Z,70.03
2022-11-17T01:08:50.600Z,70.00
2022-11-17T01:11:22.031Z,69.75
2022-11-17T01:13:58.091Z,69.97
2022-11-17T01:16:30.568Z,69.89
2022-11-17T01:19:03.556Z,69.68
2022-11-17T01:21:35.417Z,69.90
2022-11-17T01:24:07.848Z,69.34
2022-11-17T01:26:40.373Z,69.12
2022-11-17T01:29:14.696Z,69.61
2022-11-17T01:31:50.442Z,69.36
2022-11-17T01:34:21.588Z,69.06
2022-11-17T01:37:10.550Z,69.03
2022-11-17T01:39:41.796Z,68.81
2022-11-17T01:42:17.449Z,68.66
2022-11-17T01:45:06.818Z,68.43
2022-11-17T01:47:47.699Z,68.11
2022-11-17T01:50:29.693Z,68.31
2022-11-17T01:53:03.622Z,68.58
2022-11-17T01:55:39.691Z,68.46
2022-11-17T01:58:13.400Z,68.36
2022-11-17T02:00:44.224Z,68.41
2022-11-17T02:03:15.450Z,68.26
2022-11-17T02:05:53.146Z,68.25
2022-11-17T02:08:27.905Z,68.74
2022-11-17T02:11:00.141Z,68.77
2022-11-17T02:13:31.713Z,68.62
2022-11-17T02:16:02.647Z,68.42
2022-11-17T02:18:33.690Z,68.34
2022-11-17T02:21:24.107Z,68.43
2022-11-17T02:24:33.835Z,68.29
2022-11-17T02:27:31.582Z,68.24
2022-11-17T02:30:05.799Z,68.29
2022-11-17T02:32:43.878Z,68.70
2022-11-17T02:35:25.880Z,68.59
2022-11-17T02:38:07.454Z,68.64
2022-11-17T02:40:45.338Z,68.51
2022-11-17T02:43:37.581Z,68.53
2022-11-17T02:46:15.310Z,68.46
2022-11-17T02:48:50.804Z,68.18
2022-11-17T02:51:24.495Z,68.06
2022-11-17T02:54:00.274Z,68.41
2022-11-17T02:56:31.100Z,68.29
2022-11-17T02:59:05.980Z,67.93
2022-11-17T03:01:57.987Z,67.95
2022-11-17T03:04:39.118Z,67.97
2022-11-17T03:07:27.599Z,67.85
2022-11-17T03:10:09.881Z,67.82
2022-11-17T03:12:48.103Z,67.79
2022-11-17T03:15:30.089Z,67.74
2022-11-17T03:18:10.144Z,68.11
2022-11-17T03:20:51.345Z,68.11
2022-11-17T03:23:28.815Z,68.01
2022-11-17T03:26:02.914Z,67.98
2022-11-17T03:28:35.534Z,68.11
2022-11-17T03:31:09.432Z,68.24
2022-11-17T03:33:44.250Z,68.42
2022-11-17T03:36:17.847Z,68.42
2022-11-17T03:38:56.601Z,68.41
2022-11-17T03:41:31.334Z,68.32
2022-11-17T03:44:04.802Z,68.19
2022-11-17T03:49:39.958Z,68.01
2022-11-17T03:52:11.036Z,68.04
2022-11-17T03:54:42.895Z,68.34
2022-11-17T03:57:18.652Z,68.15
2022-11-17T03:59:57.068Z,68.48
2022-11-17T04:02:29.120Z,68.30
2022-11-17T04:05:09.187Z,68.22
2022-11-17T04:07:42.362Z,68.53
2022-11-17T04:10:15.456Z,68.16
2022-11-17T04:13:04.079Z,68.21
2022-11-17T04:15:52.375Z,68.03
2022-11-17T04:18:24.539Z,67.92
2022-11-17T04:20:57.835Z,68.17
2022-11-17T04:23:28.890Z,68.18
2022-11-17T04:26:17.842Z,67.84
2022-11-17T04:28:51.558Z,68.09
2022-11-17T04:31:24.897Z,67.95
2022-11-17T04:33:56.970Z,68.05
2022-11-17T04:36:29.490Z,68.12
2022-11-17T04:39:01.768Z,68.14
2022-11-17T04:41:50.888Z,67.85
2022-11-17T04:44:23.608Z,68.01
2022-11-17T04:46:55.172Z,67.77
2022-11-17T04:49:27.206Z,67.68
2022-11-17T04:51:58.135Z,67.48
2022-11-17T04:54:29.503Z,67.37
2022-11-17T04:57:00.562Z,67.31
2022-11-17T04:59:31.607Z,67.38
2022-11-17T05:02:05.963Z,67.67
2022-11-17T05:04:55.092Z,67.35
2022-11-17T05:07:26.144Z,67.38
2022-11-17T05:09:57.066Z,67.11
2022-11-17T05:12:45.730Z,67.55
2022-11-17T05:15:36.965Z,67.35
2022-11-17T05:18:08.031Z,67.14
2022-11-17T05:20:38.996Z,67.06
2022-11-17T05:23:27.288Z,67.26
2022-11-17T05:25:58.276Z,67.24
2022-11-17T05:28:34.029Z,67.39
2022-11-17T05:31:05.892Z,67.16
2022-11-17T05:33:38.096Z,67.25
2022-11-17T05:36:11.120Z,66.96
2022-11-17T05:38:42.781Z,66.89
2022-11-17T05:41:13.959Z,67.00
2022-11-17T05:43:45.454Z,67.06
2022-11-17T05:46:16.440Z,66.67
2022-11-17T05:48:48.890Z,66.71
2022-11-17T05:51:21.201Z,66.69
2022-11-17T05:53:52.702Z,66.85
2022-11-17T05:56:34.148Z,66.73
2022-11-17T05:59:16.342Z,66.48
2022-11-17T06:01:51.936Z,66.61
2022-11-17T06:04:23.762Z,66.60
2022-11-17T06:06:59.187Z,66.28
2022-11-17T06:09:34.272Z,66.12
2022-11-17T06:12:06.641Z,66.28
2022-11-17T06:14:39.804Z,66.19
2022-11-17T06:17:22.104Z,66.46
2022-11-17T06:19:58.895Z,66.38
2022-11-17T06:22:31.511Z,66.28
2022-11-17T06:25:04.704Z,66.34
2022-11-17T06:27:36.678Z,66.27
2022-11-17T06:30:09.260Z,66.32
2022-11-17T06:32:43.866Z,66.32
2022-11-17T06:35:16.695Z,66.13
2022-11-17T06:37:47.685Z,66.03
2022-11-17T06:40:19.446Z,66.06
2022-11-17T06:43:08.688Z,66.13
2022-11-17T06:45:41.504Z,66.02
2022-11-17T06:48:14.266Z,66.07
2022-11-17T06:50:45.838Z,66.08
2022-11-17T06:53:16.966Z,65.92
2022-11-17T06:55:51.114Z,65.47
2022-11-17T06:58:22.082Z,65.43
2022-11-17T07:00:53.263Z,65.35
2022-11-17T07:03:24.340Z,65.38
2022-11-17T07:05:55.488Z,65.49
2022-11-17T07:08:26.536Z,65.44
2022-11-17T07:11:02.793Z,65.24
2022-11-17T07:13:34.743Z,65.00
2022-11-17T07:16:08.255Z,64.98
2022-11-17T07:18:41.660Z,64.69
2022-11-17T07:21:14.881Z,64.79
2022-11-17T07:23:46.286Z,64.90
2022-11-17T07:26:17.447Z,64.75
2022-11-17T07:28:48.345Z,64.98
2022-11-17T07:31:19.430Z,64.98
2022-11-17T07:33:51.191Z,65.01
2022-11-17T07:36:22.274Z,65.07
2022-11-17T07:38:53.204Z,65.19
2022-11-17T07:41:24.317Z,65.27
2022-11-17T07:43:55.361Z,65.24
2022-11-17T07:46:26.811Z,65.10
2022-11-17T07:48:58.128Z,64.81
2022-11-17T07:51:29.209Z,65.20
2022-11-17T07:54:00.248Z,65.15
2022-11-17T07:56:31.310Z,65.14
2022-11-17T07:59:02.334Z,64.98
2022-11-17T08:01:33.863Z,64.78
2022-11-17T08:04:05.089Z,64.83
2022-11-17T08:06:37.306Z,64.72
2022-11-17T08:09:10.809Z,64.59
2022-11-17T08:11:41.777Z,64.70
2022-11-17T08:14:12.805Z,64.67
2022-11-17T08:16:43.831Z,64.61
2022-11-17T08:19:14.974Z,64.51
2022-11-17T08:21:45.939Z,64.69
2022-11-17T08:24:17.164Z,64.83
2022-11-17T08:26:48.205Z,64.87
2022-11-17T08:29:19.132Z,64.96
2022-11-17T08:31:50.215Z,65.04
2022-11-17T08:34:21.219Z,65.11
2022-11-17T08:36:52.275Z,64.85
2022-11-17T08:39:23.422Z,64.84
2022-11-17T08:41:55.147Z,64.92
2022-11-17T08:44:26.149Z,65.14
2022-11-17T08:46:57.149Z,65.22
2022-11-17T08:49:28.259Z,65.14
2022-11-17T08:51:59.263Z,64.97
2022-11-17T08:54:30.289Z,64.96
2022-11-17T08:57:01.613Z,64.78
2022-11-17T08:59:32.595Z,64.83
2022-11-17T09:02:03.546Z,64.79
2022-11-17T09:04:34.603Z,65.10
2022-11-17T09:07:06.020Z,65.22
2022-11-17T09:09:37.160Z,64.90
2022-11-17T09:12:08.717Z,64.72
2022-11-17T09:14:40.002Z,64.46
2022-11-17T09:17:11.114Z,64.55
2022-11-17T09:19:42.068Z,64.84
2022-11-17T09:22:12.992Z,65.19
2022-11-17T09:24:43.996Z,64.80
2022-11-17T09:27:15.072Z,65.04
2022-11-17T09:29:46.226Z,65.12
2022-11-17T09:32:19.435Z,65.25
2022-11-17T09:34:51.316Z,64.90
2022-11-17T09:37:22.735Z,64.73
2022-11-17T09:39:53.767Z,64.56
2022-11-17T09:42:25.616Z,64.39
2022-11-17T09:45:03.640Z,64.54
2022-11-17T09:47:42.312Z,64.48
2022-11-17T09:50:22.348Z,64.60
2022-11-17T09:53:05.496Z,64.59
2022-11-17T09:55:41.074Z,64.74
2022-11-17T09:58:20.324Z,64.72
2022-11-17T10:00:52.943Z,64.88
2022-11-17T10:03:28.449Z,64.66
2022-11-17T10:06:02.238Z,64.63
2022-11-17T10:08:40.546Z,64.72
2022-11-17T10:11:32.200Z,64.87
2022-11-17T10:14:11.926Z,64.95
2022-11-17T10:16:45.911Z,64.90
2022-11-17T10:19:23.266Z,64.78
2022-11-17T10:21:58.422Z,64.52
2022-11-17T10:24:42.277Z,64.62
2022-11-17T10:27:23.152Z,64.78
2022-11-17T10:30:02.415Z,64.93
2022-11-17T10:32:37.956Z,64.89
2022-11-17T10:35:20.961Z,64.87
2022-11-17T10:37:58.896Z,64.46
2022-11-17T10:40:31.818Z,64.24
2022-11-17T10:43:17.802Z,64.34
2022-11-17T10:45:50.769Z,64.33
2022-11-17T10:48:28.903Z,64.30
2022-11-17T10:51:01.467Z,64.30
2022-11-17T10:53:44.476Z,64.41
2022-11-17T10:56:21.652Z,64.28
2022-11-17T10:59:03.047Z,64.42
2022-11-17T11:01:36.535Z,64.22
2022-11-17T11:04:27.170Z,64.05
2022-11-17T11:07:11.705Z,63.96
2022-11-17T11:09:49.487Z,63.67
2022-11-17T11:12:29.374Z,63.50
2022-11-17T11:15:01.857Z,63.32
2022-11-17T11:17:33.143Z,63.67
2022-11-17T11:20:05.158Z,63.53
2022-11-17T11:22:44.884Z,63.36
2022-11-17T11:25:31.422Z,63.34
2022-11-17T11:28:18.643Z,63.44
2022-11-17T11:31:03.020Z,63.30
2022-11-17T11:33:39.216Z,63.10
2022-11-17T11:36:24.089Z,63.05
2022-11-17T11:39:02.133Z,62.85
2022-11-17T11:41:52.313Z,62.97
2022-11-17T11:44:38.688Z,63.01
2022-11-17T11:47:20.612Z,63.06
2022-11-17T11:49:56.987Z,62.88
2022-11-17T11:52:33.881Z,62.90
2022-11-17T11:55:15.752Z,62.72
2022-11-17T11:57:53.214Z,62.88
2022-11-17T12:00:25.215Z,62.84
2022-11-17T12:03:12.051Z,62.59
2022-11-17T12:05:54.011Z,62.62
2022-11-17T12:08:33.752Z,62.29
2022-11-17T12:11:26.237Z,62.16
2022-11-17T12:13:58.480Z,62.10
2022-11-17T12:16:34.074Z,61.77
2022-11-17T12:19:25.287Z,61.60
2022-11-17T12:21:58.123Z,61.68
2022-11-17T12:24:39.054Z,61.16
2022-11-17T12:27:43.201Z,61.06
2022-11-17T12:30:45.086Z,60.82
2022-11-17T12:33:16.223Z,60.65
2022-11-17T12:35:47.602Z,60.55
2022-11-17T12:38:42.932Z,60.29
2022-11-17T12:41:14.675Z,60.22
2022-11-17T12:43:46.330Z,60.64
2022-11-17T12:46:27.592Z,60.64
2022-11-17T12:49:08.115Z,60.79
2022-11-17T12:51:46.193Z,60.69
2022-11-17T12:54:28.202Z,60.50
2022-11-17T12:57:07.704Z,60.44
2022-11-17T13:00:10.797Z,60.50
2022-11-17T13:03:10.804Z,60.75
2022-11-17T13:05:42.376Z,60.68
2022-11-17T13:08:24.524Z,60.64
2022-11-17T13:11:07.252Z,60.66
2022-11-17T13:13:41.406Z,60.60
2022-11-17T13:16:21.811Z,60.60
2022-11-17T13:18:53.266Z,60.53
2022-11-17T13:21:33.858Z,60.41
2022-11-17T13:24:05.653Z,60.35
2022-11-17T13:26:38.300Z,60.12
2022-11-17T13:29:13.263Z,60.27
2022-11-17T13:31:44.461Z,60.35
2022-11-17T13:34:21.320Z,60.15
2022-11-17T13:37:01.051Z,60.19
2022-11-17T13:39:32.736Z,60.03
2022-11-17T13:42:04.417Z,59.84
2022-11-17T13:44:36.032Z,59.73
2022-11-17T13:50:32.629Z,59.61
2022-11-17T13:53:05.677Z,59.86
2022-11-17T13:55:37.485Z,59.85
2022-11-17T13:58:26.236Z,59.96
2022-11-17T14:00:59.377Z,59.74
2022-11-17T14:03:38.393Z,59.86
2022-11-17T14:06:11.203Z,59.68
2022-11-17T14:09:02.395Z,59.78
2022-11-17T14:11:33.768Z,59.83
2022-11-17T14:14:13.565Z,60.06
2022-11-17T14:16:45.650Z,60.05
2022-11-17T14:19:32.373Z,60.14
2022-11-17T14:22:27.683Z,60.03
2022-11-17T14:25:02.362Z,59.99
2022-11-17T14:27:41.877Z,59.95
2022-11-17T14:30:16.309Z,60.02
2022-11-17T14:32:47.284Z,59.90
2022-11-17T14:37:55.269Z,59.92
2022-11-17T14:40:26.042Z,59.89
2022-11-17T14:42:57.218Z,60.08
2022-11-17T14:45:28.029Z,60.08
2022-11-17T14:47:58.769Z,60.06
2022-11-17T14:50:29.728Z,60.17
2022-11-17T14:53:00.955Z,60.04
2022-11-17T14:55:31.891Z,60.22
2022-11-17T14:58:02.808Z,60.60
2022-11-17T15:00:33.843Z,60.57
2022-11-17T15:03:05.458Z,60.52
2022-11-17T15:05:36.690Z,60.46
2022-11-17T15:08:10.508Z,60.48
2022-11-17T15:10:45.716Z,60.43
2022-11-17T15:13:14.988Z,60.44
2022-11-17T15:15:46.104Z,60.50
2022-11-17T15:18:17.210Z,60.59
2022-11-17T15:20:48.271Z,60.61
2022-11-17T15:23:19.315Z,60.73
2022-11-17T15:25:50.361Z,60.82
2022-11-17T15:28:23.037Z,60.70
2022-11-17T15:30:54.200Z,60.67
2022-11-17T15:33:25.584Z,60.82
2022-11-17T15:36:04.598Z,60.84
2022-11-17T15:38:36.276Z,61.08
2022-11-17T15:41:08.833Z,61.13
2022-11-17T15:43:40.984Z,61.06
2022-11-17T15:46:13.475Z,61.09
2022-11-17T15:48:45.856Z,61.15
2022-11-17T15:51:18.558Z,61.16
2022-11-17T15:53:51.040Z,61.16
2022-11-17T15:56:23.561Z,61.19
2022-11-17T15:59:01.773Z,61.39
2022-11-17T16:01:34.048Z,61.37
2022-11-17T16:04:07.248Z,61.49
2022-11-17T16:06:39.732Z,61.39
2022-11-17T16:09:11.882Z,61.40
2022-11-17T16:11:43.359Z,61.48
2022-11-17T16:14:14.947Z,61.44
2022-11-17T16:16:47.978Z,61.51
2022-11-17T16:19:19.086Z,61.57
2022-11-17T16:21:50.290Z,61.44
2022-11-17T16:24:21.084Z,61.48
2022-11-17T16:26:52.243Z,61.51
2022-11-17T16:29:23.168Z,61.55
2022-11-17T16:31:54.166Z,61.46
2022-11-17T16:34:26.173Z,61.36
2022-11-17T16:36:56.994Z,61.38
2022-11-17T16:39:27.893Z,61.13
2022-11-17T16:42:00.096Z,61.19
2022-11-17T16:44:31.188Z,61.00
2022-11-17T16:47:02.197Z,60.95
2022-11-17T16:49:35.432Z,61.11
2022-11-17T16:52:06.935Z,61.09
2022-11-17T16:54:37.814Z,61.20
2022-11-17T16:57:08.711Z,61.13
2022-11-17T16:59:39.901Z,61.18
2022-11-17T17:02:13.070Z,61.13
2022-11-17T17:04:43.908Z,61.11
2022-11-17T17:07:15.115Z,61.06
2022-11-17T17:09:45.988Z,61.12
2022-11-17T17:12:16.952Z,60.99
2022-11-17T17:14:47.863Z,61.07
2022-11-17T17:17:18.915Z,61.09
2022-11-17T17:19:49.734Z,61.05
2022-11-17T17:22:21.070Z,61.18
2022-11-17T17:24:52.096Z,60.99
2022-11-17T17:27:23.195Z,61.26
2022-11-17T17:29:57.073Z,61.33
2022-11-17T17:32:28.251Z,61.43
2022-11-17T17:34:59.063Z,61.30
2022-11-17T17:37:32.668Z,61.21
2022-11-17T17:40:04.126Z,61.38
2022-11-17T17:42:35.027Z,61.18
2022-11-17T17:45:07.028Z,60.90
2022-11-17T17:47:37.867Z,60.85
2022-11-17T17:50:10.648Z,60.88
2022-11-17T17:52:41.769Z,61.05
2022-11-17T17:55:12.780Z,61.04
2022-11-17T17:57:43.611Z,60.94
2022-11-17T18:00:18.114Z,61.12
2022-11-17T18:02:49.400Z,60.84
2022-11-17T18:05:23.425Z,60.98
2022-11-17T18:07:54.503Z,60.63
2022-11-17T18:10:25.664Z,60.84
2022-11-17T18:12:58.789Z,60.95
2022-11-17T18:15:29.650Z,61.15
2022-11-17T18:18:00.642Z,61.06
2022-11-17T18:20:32.746Z,60.97
2022-11-17T18:23:04.620Z,61.15
2022-11-17T18:25:36.125Z,61.01
2022-11-17T18:28:07.413Z,60.92
2022-11-17T18:30:38.395Z,60.82
2022-11-17T18:33:09.238Z,61.00
2022-11-17T18:35:40.387Z,60.93
2022-11-17T18:38:12.240Z,61.08
2022-11-17T18:40:43.389Z,61.00
2022-11-17T18:43:14.492Z,61.01
2022-11-17T18:45:45.302Z,60.94
2022-11-17T18:48:16.330Z,61.07
2022-11-17T18:51:17.870Z,61.15
2022-11-17T18:53:39.444Z,61.06
2022-11-17T18:56:12.979Z,61.19
2022-11-17T18:58:44.747Z,61.00
2022-11-17T19:01:17.595Z,61.03
2022-11-17T19:03:50.107Z,61.33
2022-11-17T19:06:22.538Z,61.25
2022-11-17T19:08:54.713Z,61.29
2022-11-17T19:11:26.021Z,61.45
2022-11-17T19:13:57.613Z,61.50
2022-11-17T19:16:29.482Z,61.71
2022-11-17T19:19:01.411Z,61.76
2022-11-17T19:21:33.845Z,61.81
2022-11-17T19:24:05.606Z,61.80
2022-11-17T19:26:37.082Z,61.83
2022-11-17T19:29:16.038Z,61.90
2022-11-17T19:31:48.839Z,61.90
2022-11-17T19:34:19.776Z,61.82
2022-11-17T19:36:50.558Z,61.87
2022-11-17T19:39:21.404Z,61.92
2022-11-17T19:41:53.357Z,61.90
2022-11-17T19:44:24.304Z,61.72
2022-11-17T19:46:55.702Z,61.72
2022-11-17T19:49:26.597Z,61.72
2022-11-17T19:51:57.502Z,61.79
2022-11-17T19:54:28.587Z,61.63
2022-11-17T19:56:59.445Z,61.71
2022-11-17T19:59:30.385Z,61.79
2022-11-17T20:02:01.180Z,61.51
2022-11-17T20:04:31.999Z,61.60
2022-11-17T20:07:04.317Z,61.68
2022-11-17T20:09:35.264Z,61.61
2022-11-17T20:12:06.534Z,61.66
2022-11-17T20:14:38.576Z,61.77
2022-11-17T20:17:09.354Z,61.76
2022-11-17T20:19:40.682Z,61.65
2022-11-17T20:22:13.540Z,61.37
2022-11-17T20:24:44.924Z,61.23
2022-11-17T20:27:15.701Z,61.24
2022-11-17T20:29:46.624Z,61.18
2022-11-17T20:32:17.815Z,61.19
2022-11-17T20:34:48.944Z,61.08
2022-11-17T20:37:20.211Z,60.83
2022-11-17T20:39:53.565Z,60.58
2022-11-17T20:42:24.947Z,60.39
2022-11-17T20:44:56.051Z,60.17
2022-11-17T20:47:28.767Z,60.19
2022-11-17T20:50:00.019Z,60.37
2022-11-17T20:52:31.997Z,60.43
2022-11-17T20:55:03.938Z,60.49
2022-11-17T20:57:35.455Z,60.53
2022-11-17T21:00:08.043Z,60.56
2022-11-17T21:02:39.279Z,60.58
2022-11-17T21:05:15.717Z,60.36
2022-11-17T21:07:47.045Z,60.54
2022-11-17T21:10:18.795Z,60.56
2022-11-17T21:12:49.822Z,60.52
2022-11-17T21:15:21.201Z,60.54
2022-11-17T21:18:10.677Z,60.41
2022-11-17T21:20:46.106Z,60.37
2022-11-17T21:23:17.248Z,60.41
2022-11-17T21:25:48.357Z,60.38
2022-11-17T21:28:19.853Z,60.46
2022-11-17T21:30:51.336Z,60.49
2022-11-17T21:33:22.350Z,60.28
2022-11-17T21:35:53.663Z,60.35
2022-11-17T21:38:25.361Z,60.38
2022-11-17T21:41:02.125Z,60.41
2022-11-17T21:43:33.907Z,60.45
2022-11-17T21:46:07.210Z,60.55
2022-11-17T21:48:39.401Z,60.53
2022-11-17T21:51:18.193Z,60.51
2022-11-17T21:53:53.270Z,60.53
2022-11-17T21:56:27.021Z,60.59
2022-11-17T21:59:03.247Z,60.63
2022-11-17T22:01:35.861Z,60.78
2022-11-17T22:04:07.370Z,60.75
2022-11-17T22:06:40.589Z,60.93
2022-11-17T22:09:15.805Z,60.93
2022-11-17T22:11:47.464Z,61.07
2022-11-17T22:14:21.121Z,61.18
2022-11-17T22:16:55.080Z,61.23
2022-11-17T22:19:28.365Z,61.34
2022-11-17T22:21:59.690Z,61.30
2022-11-17T22:24:30.612Z,61.11
2022-11-17T22:27:02.720Z,60.95
2022-11-17T22:29:34.137Z,61.11
2022-11-17T22:32:05.464Z,60.96
2022-11-17T22:34:36.945Z,61.14
2022-11-17T22:37:07.875Z,61.34
2022-11-17T22:39:39.459Z,61.18
2022-11-17T22:42:10.481Z,61.09
2022-11-17T22:44:41.820Z,61.08
2022-11-17T22:47:12.949Z,61.11
2022-11-17T22:49:44.305Z,61.14
2022-11-17T22:52:15.656Z,61.25
2022-11-17T22:54:47.131Z,61.24
2022-11-17T22:57:18.419Z,61.24
2022-11-17T22:59:49.649Z,61.22
2022-11-17T23:02:20.591Z,61.13
2022-11-17T23:04:53.748Z,61.16
2022-11-17T23:07:24.725Z,61.15
2022-11-17T23:09:55.837Z,61.27
2022-11-17T23:12:27.095Z,61.34
2022-11-17T23:14:58.188Z,61.49
2022-11-17T23:17:29.192Z,61.53
2022-11-17T23:20:00.333Z,61.19
2022-11-17T23:22:31.205Z,61.18
2022-11-17T23:25:08.257Z,61.12
2022-11-17T23:27:39.378Z,61.16
2022-11-17T23:30:13.184Z,61.29
2022-11-17T23:32:44.042Z,61.37
2022-11-17T23:35:15.107Z,61.21
2022-11-17T23:37:46.211Z,61.25
2022-11-17T23:40:18.699Z,61.39
2022-11-17T23:42:49.676Z,61.44
2022-11-17T23:45:20.980Z,61.45
2022-11-17T23:47:51.900Z,61.49
2022-11-17T23:50:22.859Z,61.42
2022-11-17T23:52:53.814Z,61.47
2022-11-17T23:55:24.776Z,61.46
2022-11-17T23:57:55.762Z,61.38
